Time;durP1;ratioP1;P1;durP2;ratioP2;P2;SDS_P1;SDS_P2;PMS_P1;PMS_P2;Temp;Humidity;BMP_temperature;BMP_pressure;BME280_temperature;BME280_humidity;BME280_pressure;Samples;Min_cycle;Max_cycle;Signal;HPM_P1;HPM_P2
2024/02/23 00:01:35;;;;;;;17.90;13.82;;;;;;;;;;5011618;28;20034;-53
2024/02/23 00:04:02;;;;;;;16.23;13.02;;;;;;;;;;5011799;28;20333;-56
2024/02/23 00:06:28;;;;;;;16.70;11.65;;;;;;;;;;5009029;28;20471;-56
2024/02/23 00:08:54;;;;;;;16.05;13.48;;;;;;;;;;5011721;28;20029;-54
2024/02/23 00:11:21;;;;;;;15.70;12.90;;;;;;;;;;5022837;28;20079;-56
2024/02/23 00:13:47;;;;;;;15.05;12.00;;;;;;;;;;5011085;28;20033;-56
2024/02/23 00:16:13;;;;;;;14.93;11.93;;;;;;;;;;5011629;28;20082;-56
2024/02/23 00:18:39;;;;;;;15.02;12.30;;;;;;;;;;5011078;28;20041;-55
2024/02/23 00:21:05;;;;;;;14.85;12.00;;;;;;;;;;5011757;28;20042;-54
2024/02/23 00:23:31;;;;;;;18.08;13.13;;;;;;;;;;5011671;28;20109;-52
2024/02/23 00:25:57;;;;;;;16.15;13.90;;;;;;;;;;5025268;28;20172;-57
2024/02/23 00:28:23;;;;;;;17.98;12.60;;;;;;;;;;5001591;28;20464;-56
2024/02/23 00:30:49;;;;;;;16.95;13.18;;;;;;;;;;5004756;28;20133;-55
2024/02/23 00:33:15;;;;;;;14.30;11.65;;;;;;;;;;5009083;28;20053;-55
2024/02/23 00:35:41;;;;;;;14.68;12.55;;;;;;;;;;5001176;28;20030;-55
2024/02/23 00:38:07;;;;;;;15.32;12.45;;;;;;;;;;5008942;28;20033;-58
2024/02/23 00:40:33;;;;;;;15.93;11.85;;;;;;;;;;5007619;28;20051;-56
2024/02/23 00:43:03;;;;;;;13.60;11.52;;;;;;;;;;5011349;28;20026;-57
2024/02/23 00:45:29;;;;;;;14.45;11.63;;;;;;;;;;5008633;28;20042;-54
2024/02/23 00:47:55;;;;;;;14.13;11.30;;;;;;;;;;5009183;28;20124;-56
2024/02/23 00:50:21;;;;;;;14.05;11.75;;;;;;;;;;4999316;28;20232;-56
2024/02/23 00:52:47;;;;;;;16.85;11.93;;;;;;;;;;5008924;28;20559;-57
2024/02/23 00:55:13;;;;;;;13.75;10.70;;;;;;;;;;5012251;28;20108;-56
2024/02/23 00:57:39;;;;;;;16.52;11.70;;;;;;;;;;5015494;28;20444;-57
2024/02/23 01:00:05;;;;;;;16.77;11.15;;;;;;;;;;5008719;28;20140;-58
2024/02/23 01:02:35;;;;;;;13.57;9.73;;;;;;;;;;5010473;28;20164;-55
2024/02/23 01:05:02;;;;;;;12.35;9.80;;;;;;;;;;5009499;28;20464;-57
2024/02/23 01:07:28;;;;;;;11.50;9.80;;;;;;;;;;5003975;28;20030;-53
2024/02/23 01:09:54;;;;;;;11.68;9.63;;;;;;;;;;5010924;28;20124;-56
2024/02/23 01:12:20;;;;;;;9.57;8.35;;;;;;;;;;5007544;28;20165;-57
2024/02/23 01:14:48;;;;;;;10.23;8.45;;;;;;;;;;4999710;28;20023;-57
2024/02/23 01:17:14;;;;;;;10.43;8.25;;;;;;;;;;4998812;28;20026;-57
2024/02/23 01:19:41;;;;;;;8.95;7.68;;;;;;;;;;5005430;28;20037;-57
2024/02/23 01:22:07;;;;;;;9.50;8.32;;;;;;;;;;5006406;28;20025;-56
2024/02/23 01:24:33;;;;;;;12.55;8.50;;;;;;;;;;5007737;28;20101;-57
2024/02/23 01:26:59;;;;;;;10.10;8.02;;;;;;;;;;5004442;28;20037;-56
2024/02/23 01:29:25;;;;;;;8.73;7.70;;;;;;;;;;5011924;28;20379;-57
2024/02/23 01:31:52;;;;;;;10.13;7.45;;;;;;;;;;5010557;28;20101;-57
2024/02/23 01:34:18;;;;;;;9.43;8.40;;;;;;;;;;5007764;28;20030;-57
2024/02/23 01:36:44;;;;;;;10.23;7.97;;;;;;;;;;5011387;28;20037;-56
2024/02/23 01:39:11;;;;;;;11.65;7.75;;;;;;;;;;5010888;28;20052;-57
2024/02/23 01:41:37;;;;;;;8.38;7.50;;;;;;;;;;5011257;28;20065;-57
2024/02/23 01:44:03;;;;;;;10.68;8.13;;;;;;;;;;5009325;28;20445;-55
2024/02/23 01:46:29;;;;;;;9.07;7.25;;;;;;;;;;5007477;28;20034;-56
2024/02/23 01:48:55;;;;;;;9.38;7.80;;;;;;;;;;5019062;28;20040;-57
2024/02/23 01:51:21;;;;;;;9.10;7.07;;;;;;;;;;5004143;28;20057;-57
2024/02/23 01:53:47;;;;;;;9.30;6.60;;;;;;;;;;5002429;28;20030;-56
2024/02/23 01:56:17;;;;;;;8.82;6.57;;;;;;;;;;5009914;28;20236;-57
2024/02/23 01:58:44;;;;;;;8.63;7.03;;;;;;;;;;5010601;28;20065;-57
2024/02/23 02:01:10;;;;;;;8.30;6.50;;;;;;;;;;5010784;28;20034;-56
2024/02/23 02:03:38;;;;;;;7.70;5.20;;;;;;;;;;5008644;28;20041;-57
2024/02/23 02:06:06;;;;;;;5.55;4.68;;;;;;;;;;5012047;28;20026;-56
2024/02/23 02:08:33;;;;;;;6.28;5.15;;;;;;;;;;5011108;28;20033;-57
2024/02/23 02:10:59;;;;;;;4.75;4.20;;;;;;;;;;5014649;28;20080;-57
2024/02/23 02:13:25;;;;;;;5.43;4.40;;;;;;;;;;5008380;28;20160;-57
2024/02/23 02:15:51;;;;;;;4.68;4.28;;;;;;;;;;5013495;28;20061;-53
2024/02/23 02:18:17;;;;;;;6.32;3.90;;;;;;;;;;5014796;28;20026;-54
2024/02/23 02:20:51;;;;;;;5.55;4.10;;;;;;;;;;5023594;28;20029;-53
2024/02/23 02:23:17;;;;;;;;;;;;;;;;;;5001717;28;20030;-52
2024/02/23 02:25:43;;;;;;;4.60;3.53;;;;;;;;;;5006967;28;19912;-50
2024/02/23 02:28:15;;;;;;;5.18;3.63;;;;;;;;;;5009259;28;20029;-52
2024/02/23 02:30:41;;;;;;;4.57;3.75;;;;;;;;;;5002256;28;20040;-51
2024/02/23 02:33:07;;;;;;;5.00;3.33;;;;;;;;;;5010409;28;20132;-52
2024/02/23 02:35:33;;;;;;;3.30;3.00;;;;;;;;;;5012120;28;20384;-53
2024/02/23 02:37:59;;;;;;;5.70;3.13;;;;;;;;;;5010579;28;20460;-52
2024/02/23 02:40:25;;;;;;;3.15;2.78;;;;;;;;;;5009030;28;20117;-52
2024/02/23 02:42:51;;;;;;;3.75;3.13;;;;;;;;;;5009515;28;20500;-52
2024/02/23 02:45:17;;;;;;;2.83;2.50;;;;;;;;;;5013181;28;20057;-52
2024/02/23 02:47:43;;;;;;;3.70;2.67;;;;;;;;;;5013135;28;20059;-52
2024/02/23 02:50:09;;;;;;;3.42;2.50;;;;;;;;;;5012434;28;20072;-53
2024/02/23 02:52:35;;;;;;;4.00;2.38;;;;;;;;;;5000896;28;20037;-52
2024/02/23 02:55:01;;;;;;;2.83;1.70;;;;;;;;;;5011361;28;20033;-51
2024/02/23 02:57:27;;;;;;;2.10;1.90;;;;;;;;;;5011497;28;20549;-54
2024/02/23 02:59:53;;;;;;;1.90;1.80;;;;;;;;;;5003811;28;20092;-52
2024/02/23 03:02:19;;;;;;;4.47;2.35;;;;;;;;;;5009435;28;20041;-53
2024/02/23 03:04:47;;;;;;;3.55;2.00;;;;;;;;;;5009598;28;20078;-55
2024/02/23 03:07:13;;;;;;;4.38;2.00;;;;;;;;;;5015055;28;20033;-54
2024/02/23 03:09:39;;;;;;;2.75;2.42;;;;;;;;;;5010732;28;20080;-55
2024/02/23 03:12:05;;;;;;;4.43;2.78;;;;;;;;;;5008425;28;20048;-52
2024/02/23 03:14:33;;;;;;;3.28;2.75;;;;;;;;;;5011689;28;20026;-53
2024/02/23 03:16:59;;;;;;;3.50;3.17;;;;;;;;;;5011439;28;20037;-55
2024/02/23 03:19:25;;;;;;;7.78;3.92;;;;;;;;;;5010902;28;20113;-55
2024/02/23 03:21:52;;;;;;;3.42;3.03;;;;;;;;;;5004110;28;20077;-55
2024/02/23 03:24:18;;;;;;;3.20;2.90;;;;;;;;;;5007030;28;20068;-51
2024/02/23 03:26:44;;;;;;;4.55;3.25;;;;;;;;;;5013177;28;20479;-52
2024/02/23 03:29:10;;;;;;;5.10;3.53;;;;;;;;;;5007677;28;20028;-55
2024/02/23 03:31:36;;;;;;;5.32;4.82;;;;;;;;;;5008906;28;20084;-52
2024/02/23 03:34:03;;;;;;;4.80;4.18;;;;;;;;;;5009336;28;20432;-54
2024/02/23 03:36:29;;;;;;;4.60;4.20;;;;;;;;;;5008224;28;20050;-57
2024/02/23 03:38:55;;;;;;;6.13;4.13;;;;;;;;;;5003128;28;20110;-57
2024/02/23 03:41:21;;;;;;;5.97;3.88;;;;;;;;;;5005546;28;20467;-56
2024/02/23 03:43:47;;;;;;;4.20;3.33;;;;;;;;;;5012031;28;20026;-56
2024/02/23 03:46:14;;;;;;;5.72;3.08;;;;;;;;;;5012555;28;20038;-54
2024/02/23 03:48:40;;;;;;;5.18;3.45;;;;;;;;;;5012544;28;20419;-55
2024/02/23 03:51:09;;;;;;;5.68;2.92;;;;;;;;;;5000029;28;20030;-55
2024/02/23 03:53:35;;;;;;;4.72;3.17;;;;;;;;;;5008291;28;20080;-52
2024/02/23 03:56:01;;;;;;;5.32;3.67;;;;;;;;;;5007823;28;20041;-55
2024/02/23 03:58:27;;;;;;;3.95;3.03;;;;;;;;;;5011798;28;20042;-53
2024/02/23 04:00:53;;;;;;;7.30;3.15;;;;;;;;;;5007438;28;20149;-54
2024/02/23 04:03:19;;;;;;;3.50;3.15;;;;;;;;;;5012743;28;20029;-54
2024/02/23 04:05:45;;;;;;;6.45;3.67;;;;;;;;;;5009099;28;20026;-54
2024/02/23 04:08:11;;;;;;;5.03;3.50;;;;;;;;;;5012397;28;20108;-55
2024/02/23 04:10:37;;;;;;;5.15;3.95;;;;;;;;;;5008129;28;20046;-52
2024/02/23 04:13:03;;;;;;;4.30;3.47;;;;;;;;;;5012877;28;20514;-55
2024/02/23 04:15:29;;;;;;;5.40;3.63;;;;;;;;;;5006969;28;20069;-51
2024/02/23 04:17:55;;;;;;;3.67;3.28;;;;;;;;;;5009954;28;20029;-54
2024/02/23 04:20:21;;;;;;;4.15;3.42;;;;;;;;;;5012181;28;20026;-52
2024/02/23 04:22:47;;;;;;;5.40;3.95;;;;;;;;;;5010490;28;20034;-52
2024/02/23 04:25:13;;;;;;;5.35;4.15;;;;;;;;;;5008640;28;20034;-55
2024/02/23 04:27:39;;;;;;;4.43;3.95;;;;;;;;;;5012239;28;20049;-54
2024/02/23 04:30:05;;;;;;;4.57;3.92;;;;;;;;;;5002099;28;20472;-50
2024/02/23 04:32:31;;;;;;;4.97;4.15;;;;;;;;;;4998736;28;20083;-54
2024/02/23 04:34:57;;;;;;;5.95;4.40;;;;;;;;;;5011615;28;20498;-55
2024/02/23 04:37:23;;;;;;;4.40;3.83;;;;;;;;;;5015601;28;20029;-52
2024/02/23 04:39:49;;;;;;;5.25;3.67;;;;;;;;;;5000806;28;20017;-55
2024/02/23 04:42:15;;;;;;;6.40;3.85;;;;;;;;;;5000854;28;20042;-54
2024/02/23 04:44:42;;;;;;;6.28;3.63;;;;;;;;;;5009261;28;20025;-53
2024/02/23 04:47:08;;;;;;;10.30;4.97;;;;;;;;;;5012028;28;20022;-51
2024/02/23 04:49:35;;;;;;;7.50;4.95;;;;;;;;;;5011998;28;20104;-51
2024/02/23 04:52:01;;;;;;;6.72;4.47;;;;;;;;;;5011862;28;20552;-50
2024/02/23 04:54:27;;;;;;;6.35;4.07;;;;;;;;;;5012096;28;20368;-52
2024/02/23 04:56:53;;;;;;;7.07;4.72;;;;;;;;;;5012189;28;20022;-51
2024/02/23 04:59:19;;;;;;;7.30;4.00;;;;;;;;;;5015689;28;20071;-51
2024/02/23 05:01:45;;;;;;;9.02;4.32;;;;;;;;;;5011079;28;20037;-52
2024/02/23 05:04:23;;;;;;;9.40;5.05;;;;;;;;;;5010723;28;20030;-54
2024/02/23 05:06:49;;;;;;;5.20;4.35;;;;;;;;;;4999591;28;20030;-51
2024/02/23 05:09:15;;;;;;;6.50;4.70;;;;;;;;;;5011675;28;20471;-53
2024/02/23 05:11:41;;;;;;;7.15;5.75;;;;;;;;;;5011989;28;20034;-51
2024/02/23 05:14:08;;;;;;;7.82;5.00;;;;;;;;;;5014782;28;20467;-53
2024/02/23 05:16:34;;;;;;;5.18;4.65;;;;;;;;;;5011855;28;20050;-55
2024/02/23 05:19:00;;;;;;;6.38;5.05;;;;;;;;;;5008707;28;20521;-52
2024/02/23 05:21:26;;;;;;;5.05;4.55;;;;;;;;;;5010007;28;20163;-55
2024/02/23 05:23:52;;;;;;;6.15;5.10;;;;;;;;;;5009641;28;20046;-52
2024/02/23 05:26:18;;;;;;;6.05;5.20;;;;;;;;;;5011416;28;20049;-51
2024/02/23 05:28:44;;;;;;;6.60;5.05;;;;;;;;;;5006539;28;20385;-51
2024/02/23 05:31:10;;;;;;;6.20;4.82;;;;;;;;;;5010235;28;20041;-52
2024/02/23 05:33:38;;;;;;;5.13;4.57;;;;;;;;;;5011098;28;20036;-52
2024/02/23 05:36:04;;;;;;;8.15;5.40;;;;;;;;;;5009689;28;20018;-54
2024/02/23 05:38:31;;;;;;;8.25;5.38;;;;;;;;;;5000517;28;20483;-54
2024/02/23 05:40:57;;;;;;;7.03;5.60;;;;;;;;;;5012547;28;20021;-54
2024/02/23 05:43:23;;;;;;;6.60;5.78;;;;;;;;;;5009914;28;20041;-55
2024/02/23 05:45:49;;;;;;;8.57;5.97;;;;;;;;;;5024841;28;20029;-52
2024/02/23 05:48:15;;;;;;;8.50;6.43;;;;;;;;;;5006656;28;20164;-52
2024/02/23 05:50:41;;;;;;;9.15;6.60;;;;;;;;;;5009868;28;20132;-52
2024/02/23 05:53:07;;;;;;;6.72;6.05;;;;;;;;;;5011681;28;20037;-52
2024/02/23 05:55:33;;;;;;;9.15;7.28;;;;;;;;;;5011545;28;20632;-54
2024/02/23 05:57:59;;;;;;;7.60;6.18;;;;;;;;;;5014158;28;20030;-56
2024/02/23 06:00:25;;;;;;;6.40;4.47;;;;;;;;;;5015965;28;20396;-56
2024/02/23 06:02:51;;;;;;;6.60;4.75;;;;;;;;;;5012390;28;20034;-56
2024/02/23 06:05:17;;;;;;;7.95;7.05;;;;;;;;;;5008372;28;20421;-56
2024/02/23 06:07:43;;;;;;;7.97;7.18;;;;;;;;;;5009830;28;20034;-53
2024/02/23 06:10:10;;;;;;;8.95;7.45;;;;;;;;;;5011940;28;20025;-53
2024/02/23 06:12:36;;;;;;;9.15;7.60;;;;;;;;;;5004404;28;20043;-57
2024/02/23 06:15:02;;;;;;;9.10;8.20;;;;;;;;;;5012553;28;20088;-57
2024/02/23 06:17:28;;;;;;;11.23;8.70;;;;;;;;;;5008715;28;20034;-55
2024/02/23 06:19:56;;;;;;;9.30;8.30;;;;;;;;;;5010314;28;20037;-56
2024/02/23 06:22:23;;;;;;;8.43;7.53;;;;;;;;;;5001599;28;20038;-55
2024/02/23 06:24:49;;;;;;;9.25;7.60;;;;;;;;;;5006051;28;20314;-57
2024/02/23 06:27:15;;;;;;;7.75;7.05;;;;;;;;;;5006078;28;20026;-52
2024/02/23 06:29:41;;;;;;;8.55;7.70;;;;;;;;;;5029590;28;20030;-57
2024/02/23 06:32:07;;;;;;;9.57;7.93;;;;;;;;;;5013339;28;20085;-53
2024/02/23 06:34:33;;;;;;;10.52;9.43;;;;;;;;;;5007949;28;20108;-56
2024/02/23 06:37:16;;;;;;;10.27;9.27;;;;;;;;;;5005329;28;20046;-54
2024/02/23 06:39:44;;;;;;;10.15;9.15;;;;;;;;;;5012936;28;20483;-54
2024/02/23 06:42:10;;;;;;;8.75;7.95;;;;;;;;;;5008299;28;20396;-55
2024/02/23 06:44:36;;;;;;;11.13;7.90;;;;;;;;;;5005377;28;20034;-56
2024/02/23 06:47:02;;;;;;;6.30;5.85;;;;;;;;;;5009039;28;20023;-55
2024/02/23 06:49:28;;;;;;;7.18;6.47;;;;;;;;;;5002471;28;20030;-57
2024/02/23 06:51:54;;;;;;;6.63;6.03;;;;;;;;;;5010907;28;20068;-56
2024/02/23 06:54:20;;;;;;;7.55;6.85;;;;;;;;;;5006351;28;20034;-54
2024/02/23 06:56:45;;;;;;;7.47;6.78;;;;;;;;;;5005674;28;20121;-56
2024/02/23 06:59:12;;;;;;;5.78;5.28;;;;;;;;;;5005230;28;20499;-55
2024/02/23 07:01:47;;;;;;;6.75;6.03;;;;;;;;;;5007579;28;20034;-55
2024/02/23 07:04:13;;;;;;;7.05;6.45;;;;;;;;;;5008282;28;20030;-53
2024/02/23 07:06:39;;;;;;;6.68;6.07;;;;;;;;;;5013879;28;20053;-56
2024/02/23 07:09:05;;;;;;;6.57;5.95;;;;;;;;;;5003449;28;20042;-55
2024/02/23 07:11:31;;;;;;;5.32;4.82;;;;;;;;;;5010620;28;20038;-54
2024/02/23 07:13:57;;;;;;;5.50;5.00;;;;;;;;;;5008812;28;20069;-56
2024/02/23 07:16:23;;;;;;;5.22;4.30;;;;;;;;;;5007891;28;20058;-54
2024/02/23 07:18:49;;;;;;;6.00;4.57;;;;;;;;;;5007919;28;20053;-56
2024/02/23 07:21:18;;;;;;;4.05;3.65;;;;;;;;;;5005981;28;20017;-56
2024/02/23 07:23:44;;;;;;;5.55;3.88;;;;;;;;;;5010434;28;20066;-53
2024/02/23 07:26:10;;;;;;;4.68;4.25;;;;;;;;;;5012789;28;20022;-52
2024/02/23 07:28:36;;;;;;;3.75;3.45;;;;;;;;;;5003500;28;20034;-55
2024/02/23 07:31:02;;;;;;;4.93;3.65;;;;;;;;;;5007873;28;20032;-54
2024/02/23 07:33:28;;;;;;;5.95;3.50;;;;;;;;;;5016653;28;20103;-54
2024/02/23 07:35:54;;;;;;;5.05;3.65;;;;;;;;;;5012235;28;20049;-57
2024/02/23 07:38:20;;;;;;;4.57;4.00;;;;;;;;;;5013049;28;20168;-55
2024/02/23 07:40:46;;;;;;;4.65;3.83;;;;;;;;;;5010257;28;20033;-54
2024/02/23 07:43:12;;;;;;;6.15;4.10;;;;;;;;;;5012835;28;20026;-57
2024/02/23 07:45:38;;;;;;;4.47;3.65;;;;;;;;;;5014652;28;20021;-54
2024/02/23 07:48:05;;;;;;;3.92;3.53;;;;;;;;;;5013046;28;20025;-50
2024/02/23 07:50:30;;;;;;;3.67;3.35;;;;;;;;;;5012935;28;20017;-53
2024/02/23 07:52:56;;;;;;;4.55;3.72;;;;;;;;;;5012429;28;20044;-54
2024/02/23 07:55:22;;;;;;;7.68;4.15;;;;;;;;;;5007643;28;20033;-56
2024/02/23 07:57:48;;;;;;;5.93;4.82;;;;;;;;;;5008315;28;20551;-57
2024/02/23 08:00:14;;;;;;;5.43;4.30;;;;;;;;;;5009314;28;20046;-58
2024/02/23 08:02:41;;;;;;;4.97;4.47;;;;;;;;;;5007184;28;20117;-56
2024/02/23 08:05:07;;;;;;;7.30;5.13;;;;;;;;;;5009894;28;20034;-55
2024/02/23 08:07:33;;;;;;;7.95;5.30;;;;;;;;;;5008334;28;20034;-56
2024/02/23 08:09:59;;;;;;;8.05;4.30;;;;;;;;;;5003021;28;20105;-50
2024/02/23 08:12:25;;;;;;;7.82;5.07;;;;;;;;;;5002734;28;20121;-62
2024/02/23 08:14:53;;;;;;;7.95;5.13;;;;;;;;;;5006955;28;20372;-60
2024/02/23 08:17:19;;;;;;;7.22;4.72;;;;;;;;;;5008403;28;20057;-60
2024/02/23 08:19:46;;;;;;;5.03;4.50;;;;;;;;;;5005490;28;20025;-64
2024/02/23 08:22:12;;;;;;;4.47;3.83;;;;;;;;;;5006522;28;20030;-66
2024/02/23 08:24:39;;;;;;;6.82;4.40;;;;;;;;;;5011150;28;20076;-65
2024/02/23 08:27:05;;;;;;;5.57;3.83;;;;;;;;;;5004202;28;20026;-61
2024/02/23 08:29:31;;;;;;;8.50;3.95;;;;;;;;;;4999745;28;20038;-52
2024/02/23 08:31:57;;;;;;;6.13;3.70;;;;;;;;;;5009287;28;20069;-60
2024/02/23 08:34:24;;;;;;;6.53;3.70;;;;;;;;;;5010343;28;20057;-58
2024/02/23 08:36:51;;;;;;;4.10;3.53;;;;;;;;;;5007794;28;20124;-61
2024/02/23 08:39:17;;;;;;;9.15;5.03;;;;;;;;;;5000423;28;20026;-52
2024/02/23 08:41:43;;;;;;;7.18;4.35;;;;;;;;;;5007141;28;20057;-55
2024/02/23 08:44:09;;;;;;;3.97;3.40;;;;;;;;;;5009063;28;20111;-65
2024/02/23 08:46:35;;;;;;;4.38;3.67;;;;;;;;;;5006450;28;20050;-64
2024/02/23 08:49:01;;;;;;;4.72;3.75;;;;;;;;;;5002127;28;20026;-52
2024/02/23 08:51:27;;;;;;;5.88;4.40;;;;;;;;;;5004067;28;20412;-54
2024/02/23 08:53:53;;;;;;;6.35;5.38;;;;;;;;;;5008825;28;20026;-55
2024/02/23 08:56:19;;;;;;;6.93;6.18;;;;;;;;;;4999413;28;20026;-55
2024/02/23 08:58:45;;;;;;;9.25;5.70;;;;;;;;;;4999752;28;20034;-50
2024/02/23 09:01:11;;;;;;;6.90;4.82;;;;;;;;;;5006417;28;20365;-60
2024/02/23 09:03:37;;;;;;;6.63;5.35;;;;;;;;;;5006626;28;20105;-61
2024/02/23 09:06:03;;;;;;;5.88;4.97;;;;;;;;;;5009716;28;20488;-60
2024/02/23 09:08:29;;;;;;;4.40;4.03;;;;;;;;;;5006429;28;20551;-59
2024/02/23 09:10:55;;;;;;;4.00;3.60;;;;;;;;;;5005515;28;20026;-59
2024/02/23 09:13:21;;;;;;;3.90;3.47;;;;;;;;;;5010896;28;20056;-59
2024/02/23 09:15:47;;;;;;;4.63;4.18;;;;;;;;;;5005404;28;20026;-60
2024/02/23 09:18:14;;;;;;;4.43;4.03;;;;;;;;;;5010223;28;20044;-66
2024/02/23 09:20:40;;;;;;;5.72;4.10;;;;;;;;;;5015616;28;20037;-62
2024/02/23 09:23:06;;;;;;;3.88;3.25;;;;;;;;;;5004930;28;20109;-70
2024/02/23 09:25:32;;;;;;;3.60;2.92;;;;;;;;;;4999925;28;20022;-75
2024/02/23 09:27:58;;;;;;;3.65;3.28;;;;;;;;;;4997206;28;20448;-65
2024/02/23 09:30:24;;;;;;;4.47;3.00;;;;;;;;;;5008397;28;20026;-62
2024/02/23 09:32:50;;;;;;;3.88;3.03;;;;;;;;;;5013253;28;20107;-57
2024/02/23 09:35:16;;;;;;;3.53;2.90;;;;;;;;;;5002293;28;20044;-60
2024/02/23 09:37:42;;;;;;;4.95;2.95;;;;;;;;;;5011275;28;20028;-59
2024/02/23 09:40:08;;;;;;;4.13;3.00;;;;;;;;;;5012857;28;20480;-65
2024/02/23 09:42:35;;;;;;;5.65;2.97;;;;;;;;;;5013543;28;20388;-62
2024/02/23 09:45:01;;;;;;;3.50;3.20;;;;;;;;;;5013218;28;20117;-68
2024/02/23 09:47:28;;;;;;;4.22;3.22;;;;;;;;;;5010816;28;20488;-61
2024/02/23 09:49:55;;;;;;;5.53;3.17;;;;;;;;;;5009044;28;20379;-61
2024/02/23 09:52:21;;;;;;;4.00;2.95;;;;;;;;;;5014050;28;20057;-66
2024/02/23 09:54:47;;;;;;;3.38;2.63;;;;;;;;;;5013681;28;20013;-63
2024/02/23 09:57:14;;;;;;;3.17;2.83;;;;;;;;;;5009621;28;20049;-65
2024/02/23 09:59:40;;;;;;;3.00;2.70;;;;;;;;;;5009500;28;20488;-59
2024/02/23 10:02:10;;;;;;;4.65;2.80;;;;;;;;;;5005097;28;20060;-59
2024/02/23 10:04:36;;;;;;;3.60;3.28;;;;;;;;;;5012317;28;20057;-50
2024/02/23 10:07:04;;;;;;;6.32;3.47;;;;;;;;;;5001206;28;20485;-59
2024/02/23 10:09:30;;;;;;;3.22;2.67;;;;;;;;;;5012272;28;20105;-63
2024/02/23 10:11:56;;;;;;;3.28;3.05;;;;;;;;;;5012419;28;20041;-52
2024/02/23 10:14:22;;;;;;;3.13;2.88;;;;;;;;;;5004131;28;20298;-57
2024/02/23 10:16:53;;;;;;;4.18;3.75;;;;;;;;;;5016731;28;20041;-55
2024/02/23 10:19:28;;;;;;;5.18;3.53;;;;;;;;;;5014463;28;20045;-60
2024/02/23 10:21:54;;;;;;;4.25;3.85;;;;;;;;;;5011128;28;20087;-61
2024/02/23 10:24:20;;;;;;;5.35;4.07;;;;;;;;;;5011440;28;20025;-63
2024/02/23 10:26:46;;;;;;;4.70;4.30;;;;;;;;;;5014680;28;20036;-62
2024/02/23 10:29:13;;;;;;;4.93;4.20;;;;;;;;;;5013991;28;20022;-61
2024/02/23 10:31:39;;;;;;;5.50;5.00;;;;;;;;;;5012879;28;20029;-59
2024/02/23 10:34:12;;;;;;;5.90;5.13;;;;;;;;;;5011861;28;20030;-59
2024/02/23 10:36:40;;;;;;;8.30;4.82;;;;;;;;;;5013298;28;20037;-54
2024/02/23 10:39:09;;;;;;;5.45;4.95;;;;;;;;;;5013938;28;20025;-59
2024/02/23 10:41:39;;;;;;;10.07;6.22;;;;;;;;;;5013263;28;20383;-61
2024/02/23 10:44:06;;;;;;;6.63;6.03;;;;;;;;;;5013375;28;20483;-58
2024/02/23 10:46:33;;;;;;;7.85;5.80;;;;;;;;;;5013842;28;20053;-55
2024/02/23 10:48:59;;;;;;;7.40;5.88;;;;;;;;;;5013164;28;20034;-53
2024/02/23 10:51:25;;;;;;;7.40;6.40;;;;;;;;;;5013495;28;20030;-52
2024/02/23 10:53:52;;;;;;;7.47;6.78;;;;;;;;;;5016821;28;20531;-61
2024/02/23 10:56:19;;;;;;;8.38;7.57;;;;;;;;;;5016790;28;20025;-66
2024/02/23 10:58:45;;;;;;;8.10;7.03;;;;;;;;;;5003295;28;20027;-62
2024/02/23 11:01:12;;;;;;;9.38;7.97;;;;;;;;;;5010188;28;20073;-61
2024/02/23 11:03:39;;;;;;;8.85;8.00;;;;;;;;;;5004666;28;20030;-65
2024/02/23 11:06:08;;;;;;;8.55;7.53;;;;;;;;;;5024126;28;20041;-61
2024/02/23 11:08:36;;;;;;;9.52;8.00;;;;;;;;;;5000521;28;20032;-60
2024/02/23 11:11:09;;;;;;;10.18;8.90;;;;;;;;;;5006913;28;20030;-62
2024/02/23 11:13:36;;;;;;;9.43;8.52;;;;;;;;;;4998956;28;20058;-59
2024/02/23 11:16:03;;;;;;;9.93;9.00;;;;;;;;;;5008296;28;20049;-58
2024/02/23 11:18:29;;;;;;;8.35;7.55;;;;;;;;;;5013803;28;20030;-60
2024/02/23 11:20:56;;;;;;;9.77;8.32;;;;;;;;;;5002072;28;20033;-62
2024/02/23 11:23:23;;;;;;;8.45;7.30;;;;;;;;;;5004056;28;20229;-61
2024/02/23 11:26:02;;;;;;;8.00;7.03;;;;;;;;;;4998099;28;20030;-59
2024/02/23 11:28:28;;;;;;;9.63;7.93;;;;;;;;;;5001437;28;20081;-65
2024/02/23 11:30:54;;;;;;;10.07;7.13;;;;;;;;;;5007782;28;20114;-65
2024/02/23 11:33:30;;;;;;;8.43;7.57;;;;;;;;;;5003816;28;20415;-61
2024/02/23 11:36:06;;;;;;;7.53;6.82;;;;;;;;;;5009533;28;20109;-70
2024/02/23 11:38:33;;;;;;;8.50;6.45;;;;;;;;;;5002240;28;20036;-74
2024/02/23 11:41:01;;;;;;;7.15;6.43;;;;;;;;;;5014183;28;20109;-76
2024/02/23 11:43:27;;;;;;;10.05;6.65;;;;;;;;;;5011979;28;20444;-66
2024/02/23 11:45:53;;;;;;;8.75;7.20;;;;;;;;;;5010682;28;20549;-59
2024/02/23 11:48:20;;;;;;;9.13;7.20;;;;;;;;;;5003595;28;20061;-59
2024/02/23 11:50:48;;;;;;;8.57;7.32;;;;;;;;;;5015950;28;20026;-64
2024/02/23 11:53:14;;;;;;;10.32;7.90;;;;;;;;;;5009250;28;20179;-74
2024/02/23 11:55:40;;;;;;;8.07;7.28;;;;;;;;;;5006807;28;20101;-62
2024/02/23 11:58:07;;;;;;;12.32;8.35;;;;;;;;;;5003706;28;20030;-63
2024/02/23 12:00:35;;;;;;;9.45;8.45;;;;;;;;;;5010546;28;20129;-68
2024/02/23 12:03:01;;;;;;;10.30;8.88;;;;;;;;;;4994202;28;20038;-62
2024/02/23 12:05:28;;;;;;;9.75;8.32;;;;;;;;;;4997216;28;20468;-61
2024/02/23 12:07:54;;;;;;;9.45;8.55;;;;;;;;;;5002697;28;20132;-60
2024/02/23 12:10:20;;;;;;;9.18;8.30;;;;;;;;;;5010945;28;20524;-60
2024/02/23 12:12:46;;;;;;;9.98;8.05;;;;;;;;;;5008964;28;20116;-58
2024/02/23 12:15:12;;;;;;;9.80;8.73;;;;;;;;;;5006862;28;20095;-62
2024/02/23 12:17:47;;;;;;;9.30;8.43;;;;;;;;;;5007255;28;20025;-62
2024/02/23 12:20:13;;;;;;;8.77;7.85;;;;;;;;;;5010667;28;20198;-63
2024/02/23 12:22:39;;;;;;;10.18;8.25;;;;;;;;;;5001272;28;20030;-62
2024/02/23 12:25:06;;;;;;;10.60;8.77;;;;;;;;;;5006162;28;20023;-62
2024/02/23 12:27:32;;;;;;;10.57;8.52;;;;;;;;;;5014355;28;20030;-62
2024/02/23 12:29:59;;;;;;;10.88;8.18;;;;;;;;;;5012162;28;20130;-62
2024/02/23 12:32:25;;;;;;;10.15;7.45;;;;;;;;;;5006320;28;20128;-62
2024/02/23 12:34:52;;;;;;;11.40;7.40;;;;;;;;;;5011911;28;20052;-62
2024/02/23 12:37:19;;;;;;;9.65;8.63;;;;;;;;;;5004962;28;20032;-62
2024/02/23 12:39:45;;;;;;;10.00;9.00;;;;;;;;;;5010699;28;20022;-63
2024/02/23 12:42:11;;;;;;;12.13;8.95;;;;;;;;;;5003564;28;20054;-66
2024/02/23 12:44:37;;;;;;;9.48;8.55;;;;;;;;;;5008116;28;20361;-54
2024/02/23 12:47:03;;;;;;;10.27;9.10;;;;;;;;;;5000442;28;20070;-54
2024/02/23 12:49:29;;;;;;;9.63;8.68;;;;;;;;;;5011524;28;20129;-49
2024/02/23 12:51:55;;;;;;;9.73;8.43;;;;;;;;;;5018098;28;20180;-52
2024/02/23 12:54:21;;;;;;;10.43;7.93;;;;;;;;;;5011755;28;20029;-53
2024/02/23 12:56:48;;;;;;;9.07;7.38;;;;;;;;;;5011769;28;20054;-54
2024/02/23 12:59:14;;;;;;;7.53;6.80;;;;;;;;;;5011588;28;20021;-52
2024/02/23 13:01:40;;;;;;;7.75;7.00;;;;;;;;;;5012143;28;20041;-55
2024/02/23 13:04:13;;;;;;;9.48;8.27;;;;;;;;;;5011854;28;20468;-55
2024/02/23 13:06:39;;;;;;;9.35;7.65;;;;;;;;;;5007139;28;20054;-54
2024/02/23 13:09:09;;;;;;;9.70;8.25;;;;;;;;;;5003728;28;20018;-53
2024/02/23 13:11:35;;;;;;;8.68;7.72;;;;;;;;;;5008855;28;20030;-53
2024/02/23 13:14:01;;;;;;;7.25;6.50;;;;;;;;;;5006994;28;20034;-55
2024/02/23 13:16:28;;;;;;;7.72;6.38;;;;;;;;;;5004211;28;20106;-50
2024/02/23 13:18:54;;;;;;;6.97;6.38;;;;;;;;;;5002780;28;20041;-52
2024/02/23 13:21:20;;;;;;;8.35;6.60;;;;;;;;;;5017910;28;20116;-50
2024/02/23 13:23:46;;;;;;;7.00;6.28;;;;;;;;;;5005985;28;20506;-53
2024/02/23 13:26:14;;;;;;;7.22;6.53;;;;;;;;;;5008407;28;20030;-51
2024/02/23 13:28:40;;;;;;;8.85;6.45;;;;;;;;;;5011497;28;20029;-56
2024/02/23 13:31:06;;;;;;;7.03;5.68;;;;;;;;;;4997125;28;20030;-53
2024/02/23 13:33:32;;;;;;;7.38;5.53;;;;;;;;;;5014204;28;20038;-51
2024/02/23 13:35:58;;;;;;;7.13;5.95;;;;;;;;;;5003223;28;20120;-51
2024/02/23 13:38:24;;;;;;;6.20;5.60;;;;;;;;;;5009163;28;20114;-50
2024/02/23 13:40:50;;;;;;;11.25;10.15;;;;;;;;;;5007251;28;20021;-51
2024/02/23 13:43:17;;;;;;;16.42;11.75;;;;;;;;;;5014464;28;20124;-53
2024/02/23 13:45:53;;;;;;;14.18;11.77;;;;;;;;;;5011409;28;20495;-54
2024/02/23 13:48:19;;;;;;;14.32;11.88;;;;;;;;;;5011147;28;20360;-56
2024/02/23 13:50:48;;;;;;;14.00;12.40;;;;;;;;;;5011626;28;20411;-50
2024/02/23 13:53:15;;;;;;;12.23;11.02;;;;;;;;;;5011325;28;20050;-51
2024/02/23 13:55:44;;;;;;;14.57;13.10;;;;;;;;;;5009696;28;20046;-51
2024/02/23 13:58:10;;;;;;;16.15;13.20;;;;;;;;;;5003113;28;20019;-51
2024/02/23 14:00:36;;;;;;;17.02;13.57;;;;;;;;;;5003164;28;20049;-56
2024/02/23 14:03:02;;;;;;;13.52;12.07;;;;;;;;;;5017116;28;20056;-62
2024/02/23 14:05:28;;;;;;;14.23;12.75;;;;;;;;;;5025724;28;20109;-64
2024/02/23 14:07:54;;;;;;;14.52;12.45;;;;;;;;;;5010788;28;20068;-64
2024/02/23 14:10:20;;;;;;;14.90;13.10;;;;;;;;;;5021992;28;20036;-64
2024/02/23 14:12:46;;;;;;;14.23;12.82;;;;;;;;;;5009847;28;20458;-64
2024/02/23 14:15:12;;;;;;;16.80;13.32;;;;;;;;;;5013928;28;20387;-64
2024/02/23 14:17:39;;;;;;;15.63;13.90;;;;;;;;;;5008179;28;20031;-64
2024/02/23 14:20:06;;;;;;;15.38;13.80;;;;;;;;;;5020330;28;20393;-65
2024/02/23 14:22:32;;;;;;;17.08;14.10;;;;;;;;;;5011582;28;20026;-65
2024/02/23 14:24:58;;;;;;;15.82;14.18;;;;;;;;;;5004829;28;20018;-65
2024/02/23 14:27:24;;;;;;;17.70;15.35;;;;;;;;;;5011155;28;20034;-65
2024/02/23 14:29:52;;;;;;;16.77;13.95;;;;;;;;;;5007330;28;20136;-65
2024/02/23 14:32:18;;;;;;;15.98;14.40;;;;;;;;;;5015052;28;20030;-66
2024/02/23 14:34:44;;;;;;;14.88;13.38;;;;;;;;;;5017661;28;20104;-66